createdAt,value
2023-05-03T00:01:49.220Z,52.00
2023-05-03T00:04:18.373Z,52.00
2023-05-03T00:06:46.276Z,52.00
2023-05-03T00:09:14.565Z,52.00
2023-05-03T00:11:42.397Z,52.00
2023-05-03T00:14:11.415Z,52.00
2023-05-03T00:16:39.172Z,52.00
2023-05-03T00:19:10.573Z,52.10
2023-05-03T00:21:42.684Z,52.70
2023-05-03T00:24:10.357Z,52.10
2023-05-03T00:26:38.020Z,52.00
2023-05-03T00:29:05.692Z,52.00
2023-05-03T00:31:34.788Z,52.00
2023-05-03T00:34:02.680Z,52.00
2023-05-03T00:36:30.962Z,52.00
2023-05-03T00:38:58.641Z,52.00
2023-05-03T00:41:27.332Z,52.00
2023-05-03T00:43:54.988Z,52.00
2023-05-03T00:46:22.700Z,52.10
2023-05-03T00:48:51.698Z,52.00
2023-05-03T00:51:19.448Z,52.00
2023-05-03T00:53:47.205Z,52.00
2023-05-03T00:56:15.964Z,52.00
2023-05-03T00:58:43.684Z,52.00
2023-05-03T01:01:11.944Z,52.10
2023-05-03T01:03:41.859Z,52.10
2023-05-03T01:06:16.638Z,52.10
2023-05-03T01:08:48.038Z,52.00
2023-05-03T01:11:18.569Z,52.10
2023-05-03T01:13:50.779Z,52.10
2023-05-03T01:16:22.141Z,52.10
2023-05-03T01:18:49.992Z,52.10
2023-05-03T01:21:19.442Z,52.10
2023-05-03T01:23:58.392Z,52.20
2023-05-03T01:26:28.186Z,52.20
2023-05-03T01:28:56.301Z,52.20
2023-05-03T01:31:27.336Z,52.20
2023-05-03T01:34:01.893Z,52.20
2023-05-03T01:36:32.961Z,52.20
2023-05-03T01:39:02.693Z,52.20
2023-05-03T01:41:31.769Z,52.30
2023-05-03T01:43:59.465Z,52.20
2023-05-03T01:46:27.214Z,52.30
2023-05-03T01:48:54.974Z,52.30
2023-05-03T01:51:22.999Z,52.30
2023-05-03T01:53:50.836Z,52.30
2023-05-03T01:56:18.538Z,52.30
2023-05-03T01:58:47.606Z,52.40
2023-05-03T02:01:15.485Z,52.30
2023-05-03T02:03:43.200Z,52.40
2023-05-03T02:06:10.933Z,52.50
2023-05-03T02:08:38.616Z,52.50
2023-05-03T02:11:06.526Z,52.50
2023-05-03T02:13:34.210Z,52.50
2023-05-03T02:16:03.373Z,52.50
2023-05-03T02:18:31.313Z,52.50
2023-05-03T02:20:59.000Z,52.50
2023-05-03T02:23:26.686Z,52.50
2023-05-03T02:25:55.215Z,52.50
2023-05-03T02:28:22.885Z,52.50
2023-05-03T02:30:50.618Z,52.50
2023-05-03T02:33:19.632Z,52.50
2023-05-03T02:35:48.550Z,52.50
2023-05-03T02:38:16.317Z,52.50
2023-05-03T02:40:44.058Z,52.50
2023-05-03T02:43:11.776Z,52.50
2023-05-03T02:45:39.524Z,52.40
2023-05-03T02:48:07.565Z,52.40
2023-05-03T02:50:36.618Z,52.50
2023-05-03T02:53:04.443Z,52.40
2023-05-03T02:55:32.608Z,52.40
2023-05-03T02:58:00.897Z,52.50
2023-05-03T03:00:29.041Z,52.50
2023-05-03T03:02:56.961Z,52.50
2023-05-03T03:05:24.717Z,52.50
2023-05-03T03:07:53.969Z,52.50
2023-05-03T03:10:22.002Z,52.50
2023-05-03T03:12:50.236Z,52.50
2023-05-03T03:15:27.396Z,52.50
2023-05-03T03:17:57.734Z,52.50
2023-05-03T03:20:26.429Z,52.50
2023-05-03T03:22:55.604Z,52.50
2023-05-03T03:25:23.475Z,52.60
2023-05-03T03:27:51.189Z,52.50
2023-05-03T03:30:19.045Z,52.50
2023-05-03T03:32:57.066Z,52.50
2023-05-03T03:35:32.001Z,52.50
2023-05-03T03:38:01.099Z,52.60
2023-05-03T03:40:28.951Z,52.60
2023-05-03T03:42:57.981Z,52.60
2023-05-03T03:45:26.641Z,52.50
2023-05-03T03:47:57.796Z,52.60
2023-05-03T03:50:25.934Z,52.50
2023-05-03T03:52:53.622Z,52.50
2023-05-03T03:55:23.174Z,52.60
2023-05-03T03:57:54.121Z,52.50
2023-05-03T04:00:23.481Z,52.50
2023-05-03T04:02:58.994Z,52.60
2023-05-03T04:05:26.924Z,52.60
2023-05-03T04:07:55.415Z,52.50
2023-05-03T04:10:26.053Z,52.60
2023-05-03T04:12:55.553Z,52.60
2023-05-03T04:15:23.888Z,52.50
2023-05-03T04:17:52.342Z,52.50
2023-05-03T04:20:21.442Z,52.50
2023-05-03T04:22:50.677Z,52.50
2023-05-03T04:25:20.937Z,52.50
2023-05-03T04:27:59.212Z,52.50
2023-05-03T04:30:29.546Z,52.50
2023-05-03T04:33:01.289Z,52.50
2023-05-03T04:35:31.141Z,52.50
2023-05-03T04:38:04.104Z,52.50
2023-05-03T04:40:34.170Z,52.60
2023-05-03T04:43:08.211Z,52.60
2023-05-03T04:45:39.366Z,52.60
2023-05-03T04:48:09.882Z,52.60
2023-05-03T04:50:37.738Z,52.60
2023-05-03T04:53:08.405Z,52.70
2023-05-03T04:55:45.770Z,52.60
2023-05-03T04:58:15.390Z,52.70
2023-05-03T05:00:43.283Z,52.70
2023-05-03T05:03:16.948Z,52.70
2023-05-03T05:05:45.249Z,52.70
2023-05-03T05:08:13.214Z,52.70
2023-05-03T05:10:48.673Z,52.70
2023-05-03T05:13:22.424Z,52.70
2023-05-03T05:15:50.162Z,52.70
2023-05-03T05:18:18.543Z,52.70
2023-05-03T05:20:47.359Z,52.70
2023-05-03T05:23:16.090Z,52.70
2023-05-03T05:25:46.676Z,52.70
2023-05-03T05:28:14.534Z,52.70
2023-05-03T05:30:43.610Z,52.70
2023-05-03T05:33:11.495Z,52.70
2023-05-03T05:35:39.778Z,52.70
2023-05-03T05:38:07.490Z,52.70
2023-05-03T05:40:35.783Z,52.70
2023-05-03T05:43:04.632Z,52.60
2023-05-03T05:45:36.864Z,52.60
2023-05-03T05:48:08.153Z,52.70
2023-05-03T05:50:36.476Z,52.60
2023-05-03T05:53:10.052Z,52.60
2023-05-03T05:55:41.912Z,52.60
2023-05-03T05:58:12.033Z,52.60
2023-05-03T06:00:45.102Z,52.50
2023-05-03T06:03:14.872Z,52.60
2023-05-03T06:05:43.680Z,52.60
2023-05-03T06:08:11.481Z,52.50
2023-05-03T06:10:39.920Z,52.60
2023-05-03T06:13:07.725Z,52.60
2023-05-03T06:15:36.238Z,52.50
2023-05-03T06:18:04.484Z,52.50
2023-05-03T06:20:33.627Z,52.50
2023-05-03T06:23:02.365Z,52.60
2023-05-03T06:25:30.040Z,52.50
2023-05-03T06:27:58.081Z,52.40
2023-05-03T06:30:31.069Z,52.40
2023-05-03T06:33:05.119Z,52.40
2023-05-03T06:35:34.323Z,52.40
2023-05-03T06:38:02.073Z,52.40
2023-05-03T06:40:29.834Z,52.40
2023-05-03T06:42:57.669Z,52.40
2023-05-03T06:45:43.650Z,52.40
2023-05-03T06:48:11.577Z,52.50
2023-05-03T06:50:40.914Z,52.40
2023-05-03T06:53:08.608Z,52.30
2023-05-03T06:55:36.342Z,52.40
2023-05-03T06:58:05.106Z,52.40
2023-05-03T07:00:33.485Z,52.50
2023-05-03T07:03:01.607Z,52.40
2023-05-03T07:05:29.409Z,52.50
2023-05-03T07:07:58.485Z,52.50
2023-05-03T07:10:30.226Z,52.50
2023-05-03T07:12:58.816Z,52.40
2023-05-03T07:15:26.518Z,52.40
2023-05-03T07:17:54.291Z,52.40
2023-05-03T07:20:22.226Z,52.40
2023-05-03T07:22:49.930Z,52.50
2023-05-03T07:25:19.072Z,52.50
2023-05-03T07:27:47.039Z,52.50
2023-05-03T07:30:15.432Z,52.40
2023-05-03T07:32:43.158Z,52.50
2023-05-03T07:35:10.947Z,52.50
2023-05-03T07:37:38.695Z,52.50
2023-05-03T07:40:07.776Z,52.60
2023-05-03T07:42:36.828Z,52.60
2023-05-03T07:45:04.842Z,53.10
2023-05-03T07:47:33.440Z,52.60
2023-05-03T07:50:02.010Z,52.60
2023-05-03T07:52:29.968Z,52.50
2023-05-03T07:54:57.646Z,52.50
2023-05-03T07:57:25.371Z,52.50
2023-05-03T07:59:54.380Z,52.50
2023-05-03T08:02:22.521Z,52.60
2023-05-03T08:04:50.626Z,52.60
2023-05-03T08:07:18.415Z,52.50
2023-05-03T08:09:46.074Z,52.50
2023-05-03T08:12:13.951Z,52.50
2023-05-03T08:14:42.078Z,52.50
2023-05-03T08:17:11.476Z,52.40
2023-05-03T08:19:39.174Z,52.40
2023-05-03T08:22:07.406Z,53.00
2023-05-03T08:24:35.126Z,52.40
2023-05-03T08:27:02.835Z,52.40
2023-05-03T08:29:30.522Z,52.40
2023-05-03T08:31:58.314Z,52.30
2023-05-03T08:34:27.413Z,52.30
2023-05-03T08:36:55.086Z,52.30
2023-05-03T08:39:24.421Z,52.30
2023-05-03T08:41:52.997Z,52.10
2023-05-03T08:44:22.134Z,52.10
2023-05-03T08:46:50.031Z,52.30
2023-05-03T08:49:18.058Z,52.30
2023-05-03T08:51:48.416Z,52.40
2023-05-03T08:54:16.485Z,52.40
2023-05-03T08:56:44.707Z,52.50
2023-05-03T08:59:12.491Z,52.50
2023-05-03T09:01:40.546Z,52.40
2023-05-03T09:04:08.611Z,52.30
2023-05-03T09:06:36.645Z,52.30
2023-05-03T09:09:07.415Z,52.20
2023-05-03T09:11:35.962Z,52.10
2023-05-03T09:14:10.849Z,52.20
2023-05-03T09:16:38.938Z,52.00
2023-05-03T09:19:09.380Z,52.00
2023-05-03T09:21:37.221Z,51.80
2023-05-03T09:24:13.858Z,51.80
2023-05-03T09:26:42.256Z,51.60
2023-05-03T09:29:10.179Z,51.80
2023-05-03T09:31:38.270Z,51.80
2023-05-03T09:34:23.820Z,51.80
2023-05-03T09:36:51.529Z,51.50
2023-05-03T09:39:20.774Z,51.60
2023-05-03T09:41:48.589Z,51.60
2023-05-03T09:44:17.068Z,51.50
2023-05-03T09:47:03.735Z,51.50
2023-05-03T09:49:31.947Z,51.00
2023-05-03T09:51:59.752Z,51.40
2023-05-03T09:54:28.866Z,51.30
2023-05-03T09:56:57.512Z,51.20
2023-05-03T09:59:25.253Z,51.30
2023-05-03T10:01:53.648Z,51.40
2023-05-03T10:04:22.007Z,51.30
2023-05-03T10:06:50.504Z,51.40
2023-05-03T10:09:20.449Z,51.40
2023-05-03T10:11:51.249Z,51.20
2023-05-03T10:14:18.953Z,51.20
2023-05-03T10:16:48.734Z,51.40
2023-05-03T10:19:18.799Z,51.20
2023-05-03T10:21:54.121Z,51.20
2023-05-03T10:24:21.830Z,51.10
2023-05-03T10:26:51.531Z,51.10
2023-05-03T10:29:48.662Z,51.10
2023-05-03T10:32:33.151Z,50.90
2023-05-03T10:35:03.671Z,50.90
2023-05-03T10:37:33.041Z,51.20
2023-05-03T10:40:07.474Z,51.50
2023-05-03T10:42:37.474Z,51.30
2023-05-03T10:45:07.653Z,51.50
2023-05-03T10:47:35.402Z,51.60
2023-05-03T10:50:27.591Z,51.50
2023-05-03T10:52:55.341Z,51.00
2023-05-03T10:55:24.713Z,51.10
2023-05-03T10:57:57.625Z,51.10
2023-05-03T11:00:29.724Z,50.80
2023-05-03T11:03:27.274Z,50.70
2023-05-03T11:05:54.990Z,50.40
2023-05-03T11:08:23.236Z,50.70
2023-05-03T11:10:51.946Z,50.40
2023-05-03T11:13:21.026Z,50.40
2023-05-03T11:15:49.305Z,50.20
2023-05-03T11:18:16.997Z,50.20
2023-05-03T11:20:44.751Z,50.00
2023-05-03T11:23:12.591Z,49.90
2023-05-03T11:25:40.395Z,49.60
2023-05-03T11:28:08.120Z,49.60
2023-05-03T11:30:37.235Z,49.50
2023-05-03T11:33:05.313Z,49.70
2023-05-03T11:35:33.090Z,49.90
2023-05-03T11:38:00.943Z,50.00
2023-05-03T11:40:28.623Z,49.80
2023-05-03T11:42:58.391Z,50.10
2023-05-03T11:45:26.980Z,49.90
2023-05-03T11:47:56.278Z,49.90
2023-05-03T11:50:45.411Z,49.60
2023-05-03T11:53:13.237Z,50.40
2023-05-03T11:55:42.188Z,49.50
2023-05-03T11:58:10.710Z,45.40
2023-05-03T12:00:38.392Z,42.90
2023-05-03T12:03:08.476Z,41.80
2023-05-03T12:05:36.438Z,40.80
2023-05-03T12:08:05.454Z,40.70
2023-05-03T12:10:35.741Z,40.10
2023-05-03T12:13:05.150Z,39.50
2023-05-03T12:15:34.380Z,39.60
2023-05-03T12:18:04.722Z,39.40
2023-05-03T12:21:28.288Z,39.20
2023-05-03T12:23:22.099Z,39.70
2023-05-03T12:25:52.926Z,39.60
2023-05-03T12:28:21.530Z,39.50
2023-05-03T12:30:52.724Z,40.20
2023-05-03T12:33:22.976Z,40.90
2023-05-03T12:35:54.524Z,41.50
2023-05-03T12:38:24.477Z,42.10
2023-05-03T12:40:54.072Z,42.40
2023-05-03T12:43:22.003Z,42.50
2023-05-03T12:45:54.822Z,42.60
2023-05-03T12:48:37.614Z,43.10
2023-05-03T12:51:19.061Z,43.50
2023-05-03T12:53:52.103Z,43.90
2023-05-03T12:56:25.015Z,44.00
2023-05-03T12:59:15.120Z,44.10
2023-05-03T13:06:44.873Z,44.80
2023-05-03T13:09:20.060Z,45.00
2023-05-03T13:11:50.379Z,45.30
2023-05-03T13:14:18.314Z,45.60
2023-05-03T13:16:46.352Z,45.60
2023-05-03T13:19:14.125Z,45.70
2023-05-03T13:21:41.977Z,45.80
2023-05-03T13:24:11.090Z,45.70
2023-05-03T13:26:38.812Z,45.70
2023-05-03T13:29:06.560Z,45.70
2023-05-03T13:31:34.380Z,45.80
2023-05-03T13:34:02.240Z,45.90
2023-05-03T13:36:30.677Z,46.10
2023-05-03T13:38:58.987Z,46.50
2023-05-03T13:41:28.032Z,46.40
2023-05-03T13:43:55.754Z,46.40
2023-05-03T13:46:23.794Z,46.50
2023-05-03T13:48:52.654Z,46.50
2023-05-03T13:51:20.379Z,46.70
2023-05-03T13:53:48.116Z,46.70
2023-05-03T13:56:17.544Z,46.80
2023-05-03T13:58:46.581Z,46.80
2023-05-03T14:01:15.280Z,47.10
2023-05-03T14:03:44.059Z,47.30
2023-05-03T14:06:11.825Z,47.50
2023-05-03T14:08:39.546Z,47.60
2023-05-03T14:11:12.822Z,47.70
2023-05-03T14:13:54.828Z,48.30
2023-05-03T14:18:56.986Z,47.70
2023-05-03T14:21:24.862Z,47.70
2023-05-03T14:23:53.661Z,47.80
2023-05-03T14:26:23.914Z,47.80
2023-05-03T14:28:52.178Z,48.10
2023-05-03T14:31:19.862Z,48.10
2023-05-03T14:33:49.021Z,48.10
2023-05-03T14:36:16.696Z,48.20
2023-05-03T14:38:44.803Z,48.40
2023-05-03T14:41:12.563Z,48.60
2023-05-03T14:43:40.382Z,48.80
2023-05-03T14:46:09.781Z,49.20
2023-05-03T14:48:37.978Z,49.60
2023-05-03T14:51:07.344Z,50.00
2023-05-03T14:53:35.580Z,50.80
2023-05-03T14:56:03.330Z,51.30
2023-05-03T14:58:31.152Z,51.90
2023-05-03T15:00:59.350Z,52.20
2023-05-03T15:03:27.457Z,52.10
2023-05-03T15:05:55.196Z,52.00
2023-05-03T15:08:24.203Z,52.00
2023-05-03T15:10:52.415Z,52.20
2023-05-03T15:13:20.301Z,52.00
2023-05-03T15:15:48.291Z,51.70
2023-05-03T15:18:18.604Z,51.30
2023-05-03T15:20:46.576Z,51.40
2023-05-03T15:23:14.365Z,50.50
2023-05-03T15:25:43.500Z,51.00
2023-05-03T15:28:11.170Z,51.00
2023-05-03T15:30:38.913Z,51.00
2023-05-03T15:33:06.916Z,51.00
2023-05-03T15:35:34.618Z,51.30
2023-05-03T15:38:02.281Z,51.00
2023-05-03T15:40:30.249Z,51.10
2023-05-03T15:42:59.245Z,51.50
2023-05-03T15:45:28.224Z,51.60
2023-05-03T15:47:56.138Z,52.10
2023-05-03T15:50:23.878Z,52.10
2023-05-03T15:52:51.730Z,51.80
2023-05-03T15:55:19.935Z,52.40
2023-05-03T15:57:47.966Z,52.60
2023-05-03T16:00:22.842Z,52.60
2023-05-03T16:02:50.726Z,52.40
2023-05-03T16:05:19.022Z,52.60
2023-05-03T16:07:47.028Z,53.40
2023-05-03T16:10:14.974Z,53.10
2023-05-03T16:12:44.168Z,52.60
2023-05-03T16:15:12.637Z,52.80
2023-05-03T16:17:41.657Z,52.70
2023-05-03T16:20:11.541Z,52.30
2023-05-03T16:22:39.385Z,52.80
2023-05-03T16:25:10.472Z,52.80
2023-05-03T16:27:39.671Z,52.30
2023-05-03T16:30:08.604Z,52.40
2023-05-03T16:32:36.622Z,52.70
2023-05-03T16:35:06.091Z,52.10
2023-05-03T16:37:35.998Z,52.30
2023-05-03T16:40:05.913Z,52.00
2023-05-03T16:42:33.857Z,52.10
2023-05-03T16:45:01.525Z,52.20
2023-05-03T16:47:29.288Z,52.10
2023-05-03T16:49:57.200Z,51.80
2023-05-03T16:52:27.476Z,51.90
2023-05-03T16:54:55.208Z,50.80
2023-05-03T16:57:23.039Z,50.20
2023-05-03T16:59:50.722Z,49.30
2023-05-03T17:02:18.570Z,48.80
2023-05-03T17:04:46.265Z,47.40
2023-05-03T17:07:13.943Z,47.60
2023-05-03T17:09:43.361Z,48.80
2023-05-03T17:12:11.052Z,48.90
2023-05-03T17:14:39.156Z,49.40
2023-05-03T17:17:07.048Z,49.30
2023-05-03T17:19:34.752Z,49.70
2023-05-03T17:22:02.488Z,50.30
2023-05-03T17:24:30.462Z,51.40
2023-05-03T17:26:59.436Z,51.40
2023-05-03T17:29:27.337Z,52.20
2023-05-03T17:31:55.606Z,52.20
2023-05-03T17:34:24.850Z,52.10
2023-05-03T17:36:56.024Z,52.20
2023-05-03T17:39:24.034Z,51.90
2023-05-03T17:41:54.199Z,52.50
2023-05-03T17:44:23.774Z,52.60
2023-05-03T17:46:51.645Z,55.10
2023-05-03T17:49:19.462Z,54.60
2023-05-03T17:51:47.115Z,53.20
2023-05-03T17:54:14.770Z,54.60
2023-05-03T17:56:44.375Z,53.40
2023-05-03T17:59:12.045Z,53.10
2023-05-03T18:01:41.114Z,53.30
2023-05-03T18:04:08.886Z,53.30
2023-05-03T18:06:36.552Z,53.30
2023-05-03T18:09:04.436Z,53.30
2023-05-03T18:11:32.222Z,53.40
2023-05-03T18:13:59.874Z,53.50
2023-05-03T18:16:28.664Z,53.60
2023-05-03T18:18:57.951Z,53.70
2023-05-03T18:21:27.786Z,53.60
2023-05-03T18:23:55.798Z,54.00
2023-05-03T18:26:23.503Z,54.30
2023-05-03T18:28:52.319Z,54.40
2023-05-03T18:31:21.396Z,54.40
2023-05-03T18:33:49.236Z,54.40
2023-05-03T18:36:18.372Z,54.60
2023-05-03T18:38:47.085Z,54.70
2023-05-03T18:41:16.487Z,54.70
2023-05-03T18:43:44.434Z,54.80
2023-05-03T18:46:12.145Z,54.70
2023-05-03T18:48:40.282Z,54.80
2023-05-03T18:51:08.208Z,55.10
2023-05-03T18:53:37.426Z,55.10
2023-05-03T18:56:05.674Z,55.00
2023-05-03T18:58:33.496Z,55.00
2023-05-03T19:01:01.301Z,55.10
2023-05-03T19:03:29.522Z,55.20
2023-05-03T19:05:57.338Z,55.10
2023-05-03T19:08:25.077Z,55.10
2023-05-03T19:10:54.055Z,55.10
2023-05-03T19:13:21.707Z,55.00
2023-05-03T19:15:49.678Z,55.00
2023-05-03T19:18:17.318Z,55.00
2023-05-03T19:20:45.013Z,55.00
2023-05-03T19:23:12.718Z,55.00
2023-05-03T19:25:40.389Z,55.00
2023-05-03T19:28:10.472Z,54.90
2023-05-03T19:30:41.138Z,54.90
2023-05-03T19:33:08.866Z,55.00
2023-05-03T19:35:39.029Z,55.10
2023-05-03T19:38:07.031Z,55.40
2023-05-03T19:40:34.726Z,55.50
2023-05-03T19:43:03.031Z,55.70
2023-05-03T19:45:31.999Z,56.10
2023-05-03T19:47:59.681Z,56.50
2023-05-03T19:50:27.346Z,56.90
2023-05-03T19:52:55.091Z,57.30
2023-05-03T19:55:22.789Z,57.90
2023-05-03T19:57:50.434Z,58.30
2023-05-03T20:00:20.881Z,58.50
2023-05-03T20:02:49.955Z,59.30
2023-05-03T20:05:17.987Z,59.50
2023-05-03T20:07:45.656Z,59.70
2023-05-03T20:10:13.573Z,60.20
2023-05-03T20:12:41.265Z,60.40
2023-05-03T20:15:09.718Z,61.20
2023-05-03T20:17:38.361Z,62.10
2023-05-03T20:20:11.143Z,61.70
2023-05-03T20:22:38.882Z,63.10
2023-05-03T20:25:08.514Z,62.90
2023-05-03T20:27:36.223Z,62.90
2023-05-03T20:30:05.631Z,62.80
2023-05-03T20:32:36.083Z,64.00
2023-05-03T20:35:04.780Z,63.10
2023-05-03T20:37:34.621Z,63.30
2023-05-03T20:40:03.849Z,63.60
2023-05-03T20:42:31.889Z,63.50
2023-05-03T20:44:59.704Z,63.80
2023-05-03T20:47:27.694Z,64.70
2023-05-03T20:49:55.362Z,64.90
2023-05-03T20:52:23.028Z,64.60
2023-05-03T20:54:52.533Z,64.40
2023-05-03T20:57:20.166Z,64.40
2023-05-03T20:59:47.867Z,64.40
2023-05-03T21:02:15.501Z,64.10
2023-05-03T21:04:43.168Z,63.80
2023-05-03T21:07:10.901Z,64.00
2023-05-03T21:09:39.356Z,63.90
2023-05-03T21:12:09.525Z,63.50
2023-05-03T21:14:37.173Z,63.10
2023-05-03T21:17:06.259Z,62.70
2023-05-03T21:19:33.941Z,62.50
2023-05-03T21:22:02.607Z,61.90
2023-05-03T21:24:30.961Z,61.70
2023-05-03T21:26:58.758Z,61.40
2023-05-03T21:29:28.187Z,60.80
2023-05-03T21:31:55.978Z,60.30
2023-05-03T21:34:23.662Z,60.10
2023-05-03T21:36:51.419Z,60.00
2023-05-03T21:39:20.593Z,59.60
2023-05-03T21:41:48.668Z,59.20
2023-05-03T21:44:16.410Z,59.10
2023-05-03T21:46:45.465Z,58.70
2023-05-03T21:49:13.931Z,58.50
2023-05-03T21:51:41.649Z,58.10
2023-05-03T21:54:09.340Z,58.10
2023-05-03T21:56:37.221Z,57.80
2023-05-03T21:59:04.908Z,57.70
2023-05-03T22:01:32.676Z,57.40
2023-05-03T22:04:01.964Z,57.20
2023-05-03T22:06:31.018Z,56.90
2023-05-03T22:08:58.899Z,56.80
2023-05-03T22:11:26.674Z,56.70
2023-05-03T22:14:06.660Z,56.40
2023-05-03T22:16:35.240Z,56.10
2023-05-03T22:19:05.218Z,55.80
2023-05-03T22:21:32.913Z,55.60
2023-05-03T22:24:00.708Z,55.60
2023-05-03T22:26:29.310Z,55.30
2023-05-03T22:28:57.189Z,55.20
2023-05-03T22:31:26.559Z,54.90
2023-05-03T22:33:54.425Z,54.80
2023-05-03T22:36:23.863Z,54.40
2023-05-03T22:38:54.980Z,54.10
2023-05-03T22:41:23.021Z,54.10
2023-05-03T22:43:50.713Z,53.70
2023-05-03T22:46:18.453Z,53.60
2023-05-03T22:48:46.200Z,53.40
2023-05-03T22:51:14.202Z,53.20
2023-05-03T22:53:43.243Z,52.80
2023-05-03T22:56:11.382Z,52.30
2023-05-03T22:58:39.074Z,52.20
2023-05-03T23:01:10.239Z,52.00
2023-05-03T23:12:18.749Z,50.40
2023-05-03T23:16:07.189Z,50.50
2023-05-03T23:18:34.929Z,49.40
2023-05-03T23:21:02.630Z,50.00
2023-05-03T23:23:30.318Z,49.90
2023-05-03T23:25:57.985Z,49.60
2023-05-03T23:28:27.584Z,49.20
2023-05-03T23:30:55.734Z,49.00
2023-05-03T23:33:23.896Z,48.50
2023-05-03T23:35:51.920Z,48.40
2023-05-03T23:38:19.608Z,48.30
2023-05-03T23:40:47.328Z,48.00
2023-05-03T23:43:15.020Z,47.80
2023-05-03T23:45:44.067Z,47.60
2023-05-03T23:48:11.840Z,47.20
2023-05-03T23:50:39.577Z,46.90
2023-05-03T23:53:07.263Z,46.80
2023-05-03T23:55:34.952Z,46.60
2023-05-03T23:58:02.658Z,46.30
